createdAt,value
2022-11-14T00:00:33.345Z,102028.84
2022-11-14T00:03:18.393Z,102026.20
2022-11-14T00:06:06.555Z,102019.34
2022-11-14T00:08:51.646Z,102014.75
2022-11-14T00:11:37.172Z,102016.35
2022-11-14T00:14:22.037Z,102012.34
2022-11-14T00:17:07.215Z,102010.59
2022-11-14T00:19:52.119Z,102010.67
2022-11-14T00:22:37.061Z,102006.82
2022-11-14T00:25:22.545Z,101996.30
2022-11-14T00:28:08.360Z,101997.98
2022-11-14T00:30:53.743Z,102000.26
2022-11-14T00:33:38.444Z,101999.89
2022-11-14T00:36:23.330Z,101996.85
2022-11-14T00:39:13.107Z,101995.09
2022-11-14T00:41:58.344Z,101995.49
2022-11-14T00:44:43.986Z,101991.79
2022-11-14T00:47:29.281Z,101984.72
2022-11-14T00:50:15.833Z,101993.17
2022-11-14T00:53:00.752Z,101985.60
2022-11-14T00:55:45.569Z,101979.80
2022-11-14T00:58:30.713Z,101977.36
2022-11-14T01:01:16.669Z,101972.57
2022-11-14T01:04:02.026Z,101975.79
2022-11-14T01:06:47.032Z,101976.89
2022-11-14T01:09:32.732Z,101970.91
2022-11-14T01:12:17.591Z,101966.30
2022-11-14T01:15:03.176Z,101966.65
2022-11-14T01:17:48.490Z,101967.59
2022-11-14T01:20:33.367Z,101967.61
2022-11-14T01:23:18.826Z,101969.79
2022-11-14T01:26:07.483Z,101968.72
2022-11-14T01:28:53.169Z,101961.88
2022-11-14T01:31:37.948Z,101960.78
2022-11-14T01:34:23.398Z,101962.34
2022-11-14T01:37:08.866Z,101953.84
2022-11-14T01:39:54.008Z,101950.20
2022-11-14T01:42:39.575Z,101943.88
2022-11-14T01:45:49.093Z,101941.44
2022-11-14T01:48:34.253Z,101932.67
2022-11-14T01:51:23.016Z,101933.20
2022-11-14T01:54:16.169Z,101932.55
2022-11-14T01:57:04.244Z,101936.69
2022-11-14T01:59:52.853Z,101937.62
2022-11-14T02:02:38.318Z,101938.00
2022-11-14T02:05:23.981Z,101931.87
2022-11-14T02:08:13.312Z,101926.95
2022-11-14T02:10:58.257Z,101925.44
2022-11-14T02:13:43.932Z,101922.75
2022-11-14T02:16:29.005Z,101914.53
2022-11-14T02:19:15.220Z,101908.38
2022-11-14T02:25:04.670Z,101905.02
2022-11-14T02:27:50.962Z,101903.03
2022-11-14T02:30:36.165Z,101906.23
2022-11-14T02:33:20.949Z,101898.23
2022-11-14T02:36:06.863Z,101895.76
2022-11-14T02:38:52.236Z,101895.60
2022-11-14T02:41:37.296Z,101887.91
2022-11-14T02:44:22.989Z,101881.15
2022-11-14T02:47:08.307Z,101879.31
2022-11-14T02:49:53.823Z,101878.98
2022-11-14T02:52:38.736Z,101882.76
2022-11-14T02:55:23.950Z,101886.69
2022-11-14T02:58:09.045Z,101886.61
2022-11-14T03:01:19.237Z,101883.54
2022-11-14T03:03:59.404Z,101883.15
2022-11-14T03:06:44.384Z,101878.99
2022-11-14T03:09:29.793Z,101881.05
2022-11-14T03:12:18.630Z,101874.11
2022-11-14T03:15:07.738Z,101867.70
2022-11-14T03:17:52.663Z,101860.95
2022-11-14T03:20:38.795Z,101853.35
2022-11-14T03:23:24.014Z,101851.95
2022-11-14T03:26:10.863Z,101852.02
2022-11-14T03:28:55.786Z,101849.28
2022-11-14T03:31:40.765Z,101847.99
2022-11-14T03:34:25.850Z,101849.21
2022-11-14T03:37:11.379Z,101842.38
2022-11-14T03:39:56.719Z,101841.41
2022-11-14T03:42:42.024Z,101837.16
2022-11-14T03:45:27.237Z,101842.49
2022-11-14T03:48:13.097Z,101840.00
2022-11-14T03:50:58.405Z,101836.19
2022-11-14T03:53:43.340Z,101832.89
2022-11-14T03:56:28.401Z,101833.73
2022-11-14T03:59:13.199Z,101828.33
2022-11-14T04:01:58.326Z,101817.30
2022-11-14T04:04:43.087Z,101822.83
2022-11-14T04:07:27.870Z,101825.59
2022-11-14T04:10:13.065Z,101821.73
2022-11-14T04:12:57.812Z,101815.05
2022-11-14T04:15:42.871Z,101810.70
2022-11-14T04:18:28.633Z,101809.34
2022-11-14T04:21:13.982Z,101815.76
2022-11-14T04:23:58.728Z,101825.15
2022-11-14T04:26:43.454Z,101821.50
2022-11-14T04:29:28.492Z,101814.12
2022-11-14T04:32:13.804Z,101815.98
2022-11-14T04:34:58.730Z,101812.05
2022-11-14T04:37:44.027Z,101808.08
2022-11-14T04:40:29.310Z,101802.83
2022-11-14T04:43:14.031Z,101803.15
2022-11-14T04:45:59.007Z,101806.85
2022-11-14T04:48:43.864Z,101804.76
2022-11-14T04:51:29.026Z,101807.14
2022-11-14T04:54:14.254Z,101805.21
2022-11-14T04:56:59.375Z,101802.92
2022-11-14T04:59:44.112Z,101799.07
2022-11-14T05:02:32.335Z,101801.53
2022-11-14T05:05:17.114Z,101799.98
2022-11-14T05:08:02.206Z,101800.64
2022-11-14T05:10:47.334Z,101796.60
2022-11-14T05:13:32.600Z,101792.96
2022-11-14T05:16:17.862Z,101796.40
2022-11-14T05:19:02.664Z,101803.98
2022-11-14T05:21:47.843Z,101803.66
2022-11-14T05:24:33.457Z,101801.89
2022-11-14T05:27:18.382Z,101801.65
2022-11-14T05:30:03.903Z,101802.57
2022-11-14T05:32:51.397Z,101800.52
2022-11-14T05:35:36.089Z,101800.89
2022-11-14T05:38:21.908Z,101801.70
2022-11-14T05:41:09.699Z,101806.04
2022-11-14T05:43:55.102Z,101802.54
2022-11-14T05:46:42.715Z,101800.41
2022-11-14T05:49:28.144Z,101800.07
2022-11-14T05:52:15.374Z,101802.89
2022-11-14T05:55:01.000Z,101802.40
2022-11-14T05:57:48.651Z,101806.61
2022-11-14T06:00:40.895Z,101804.16
2022-11-14T06:03:32.459Z,101803.23
2022-11-14T06:06:19.620Z,101798.12
2022-11-14T06:09:04.676Z,101796.89
2022-11-14T06:11:50.569Z,101799.52
2022-11-14T06:14:35.707Z,101800.80
2022-11-14T06:17:20.635Z,101796.36
2022-11-14T06:20:07.099Z,101794.05
2022-11-14T06:22:54.211Z,101794.51
2022-11-14T06:25:39.327Z,101793.41
2022-11-14T06:28:24.098Z,101791.02
2022-11-14T06:31:08.916Z,101787.97
2022-11-14T06:33:54.287Z,101785.98
2022-11-14T06:36:39.427Z,101783.90
2022-11-14T06:39:24.741Z,101789.48
2022-11-14T06:42:09.969Z,101791.20
2022-11-14T06:44:54.865Z,101783.84
2022-11-14T06:47:41.869Z,101781.55
2022-11-14T06:50:26.941Z,101782.54
2022-11-14T06:53:12.061Z,101791.85
2022-11-14T06:56:04.945Z,101798.23
2022-11-14T06:58:50.199Z,101795.23
2022-11-14T07:01:34.991Z,101795.27
2022-11-14T07:04:19.911Z,101793.10
2022-11-14T07:07:05.245Z,101795.23
2022-11-14T07:09:50.341Z,101790.56
2022-11-14T07:12:35.538Z,101780.66
2022-11-14T07:15:20.622Z,101778.11
2022-11-14T07:18:05.783Z,101773.78
2022-11-14T07:20:57.841Z,101774.09
2022-11-14T07:23:43.501Z,101777.76
2022-11-14T07:26:28.985Z,101784.64
2022-11-14T07:29:14.170Z,101785.17
2022-11-14T07:31:59.514Z,101786.33
2022-11-14T07:34:45.267Z,101783.98
2022-11-14T07:37:30.837Z,101779.21
2022-11-14T07:40:17.139Z,101777.32
2022-11-14T07:43:03.399Z,101776.02
2022-11-14T07:45:49.401Z,101771.89
2022-11-14T07:48:35.059Z,101765.22
2022-11-14T07:51:20.335Z,101771.17
2022-11-14T07:54:05.646Z,101770.04
2022-11-14T07:56:50.959Z,101765.00
2022-11-14T07:59:36.235Z,101763.67
2022-11-14T08:02:21.408Z,101757.50
2022-11-14T08:05:07.115Z,101757.29
2022-11-14T08:07:52.583Z,101756.67
2022-11-14T08:10:37.522Z,101749.98
2022-11-14T08:13:32.299Z,101754.65
2022-11-14T08:16:18.218Z,101751.92
2022-11-14T08:19:03.227Z,101752.41
2022-11-14T08:21:48.472Z,101758.10
2022-11-14T08:24:33.314Z,101750.71
2022-11-14T08:27:18.138Z,101751.74
2022-11-14T08:30:03.785Z,101755.65
2022-11-14T08:32:50.559Z,101749.95
2022-11-14T08:35:35.705Z,101746.02
2022-11-14T08:38:21.122Z,101739.94
2022-11-14T08:41:06.711Z,101732.09
2022-11-14T08:43:51.684Z,101730.62
2022-11-14T08:46:39.137Z,101731.19
2022-11-14T08:49:24.039Z,101727.37
2022-11-14T08:52:13.715Z,101725.44
2022-11-14T08:55:02.065Z,101716.77
2022-11-14T08:57:49.698Z,101710.73
2022-11-14T09:00:35.271Z,101713.98
2022-11-14T09:03:20.044Z,101708.88
2022-11-14T09:06:05.586Z,101703.42
2022-11-14T09:08:50.466Z,101702.36
2022-11-14T09:11:35.449Z,101703.67
2022-11-14T09:14:20.427Z,101708.59
2022-11-14T09:17:06.225Z,101708.48
2022-11-14T09:19:51.778Z,101706.50
2022-11-14T09:22:36.867Z,101701.96
2022-11-14T09:25:22.313Z,101699.87
2022-11-14T09:28:08.755Z,101697.92
2022-11-14T09:31:04.637Z,101696.27
2022-11-14T09:33:50.181Z,101692.73
2022-11-14T09:36:35.632Z,101690.49
2022-11-14T09:39:20.662Z,101687.16
2022-11-14T09:42:37.751Z,101687.95
2022-11-14T09:45:22.761Z,101681.78
2022-11-14T09:48:13.802Z,101682.34
2022-11-14T09:51:13.135Z,101670.20
2022-11-14T09:54:07.961Z,101674.04
2022-11-14T09:56:53.841Z,101665.56
2022-11-14T09:59:38.870Z,101664.35
2022-11-14T10:02:31.844Z,101664.36
2022-11-14T10:05:45.578Z,101662.30
2022-11-14T10:08:50.014Z,101655.64
2022-11-14T10:11:39.473Z,101652.59
2022-11-14T10:14:27.574Z,101647.66
2022-11-14T10:17:23.092Z,101644.72
2022-11-14T10:20:43.878Z,101638.55
2022-11-14T10:23:43.103Z,101638.81
2022-11-14T10:26:35.049Z,101644.83
2022-11-14T10:30:10.166Z,101640.84
2022-11-14T10:33:04.586Z,101640.96
2022-11-14T10:36:12.311Z,101634.16
2022-11-14T10:39:40.261Z,101640.11
2022-11-14T10:42:36.194Z,101639.11
2022-11-14T10:45:37.204Z,101645.49
2022-11-14T10:48:41.446Z,101638.48
2022-11-14T10:51:39.613Z,101633.59
2022-11-14T10:54:40.463Z,101631.20
2022-11-14T10:57:28.223Z,101631.15
2022-11-14T11:00:19.045Z,101630.67
2022-11-14T11:03:04.527Z,101629.84
2022-11-14T11:05:51.395Z,101621.85
2022-11-14T11:09:02.019Z,101617.94
2022-11-14T11:12:02.494Z,101617.25
2022-11-14T11:14:52.771Z,101613.38
2022-11-14T11:17:43.008Z,101606.52
2022-11-14T11:20:40.552Z,101604.45
2022-11-14T11:23:27.039Z,101603.92
2022-11-14T11:26:31.740Z,101601.55
2022-11-14T11:29:19.215Z,101597.46
2022-11-14T11:32:04.503Z,101592.89
2022-11-14T11:34:51.442Z,101588.05
2022-11-14T11:37:41.719Z,101587.59
2022-11-14T11:40:28.386Z,101584.99
2022-11-14T11:43:40.656Z,101581.41
2022-11-14T11:46:36.032Z,101566.72
2022-11-14T11:49:29.538Z,101560.61
2022-11-14T11:52:39.208Z,101558.30
2022-11-14T11:55:27.844Z,101555.61
2022-11-14T11:58:35.698Z,101550.36
2022-11-14T12:01:21.144Z,101543.68
2022-11-14T12:04:06.511Z,101547.95
2022-11-14T12:07:11.763Z,101548.23
2022-11-14T12:10:13.888Z,101535.41
2022-11-14T12:13:07.860Z,101531.30
2022-11-14T12:16:19.477Z,101530.19
2022-11-14T12:19:04.840Z,101530.11
2022-11-14T12:22:27.801Z,101526.11
2022-11-14T12:25:28.429Z,101527.27
2022-11-14T12:28:19.654Z,101519.20
2022-11-14T12:31:09.870Z,101522.66
2022-11-14T12:34:04.287Z,101518.77
2022-11-14T12:36:50.527Z,101518.66
2022-11-14T12:39:35.554Z,101516.92
2022-11-14T12:42:24.000Z,101511.80
2022-11-14T12:45:39.452Z,101510.67
2022-11-14T12:48:28.367Z,101506.58
2022-11-14T12:51:45.633Z,101503.48
2022-11-14T12:54:45.630Z,101502.45
2022-11-14T12:58:06.499Z,101494.46
2022-11-14T13:00:59.227Z,101491.41
2022-11-14T13:04:02.466Z,101486.59
2022-11-14T13:07:05.483Z,101489.19
2022-11-14T13:10:09.088Z,101491.55
2022-11-14T13:13:25.583Z,101486.11
2022-11-14T13:16:49.018Z,101481.46
2022-11-14T13:19:54.923Z,101477.09
2022-11-14T13:22:42.187Z,101470.59
2022-11-14T13:25:27.459Z,101472.06
2022-11-14T13:28:38.436Z,101466.68
2022-11-14T13:31:44.800Z,101458.57
2022-11-14T13:34:45.925Z,101463.08
2022-11-14T13:38:12.685Z,101461.61
2022-11-14T13:41:46.166Z,101453.81
2022-11-14T13:44:50.974Z,101451.17
2022-11-14T13:47:48.327Z,101448.87
2022-11-14T13:50:36.754Z,101446.94
2022-11-14T13:53:27.520Z,101441.64
2022-11-14T13:56:30.571Z,101440.49
2022-11-14T13:59:50.896Z,101438.25
2022-11-14T14:02:53.829Z,101433.79
2022-11-14T14:06:10.892Z,101433.54
2022-11-14T14:09:14.968Z,101435.34
2022-11-14T14:12:18.266Z,101421.90
2022-11-14T14:15:31.285Z,101422.23
2022-11-14T14:18:48.772Z,101423.82
2022-11-14T14:21:47.415Z,101420.79
2022-11-14T14:24:41.488Z,101421.29
2022-11-14T14:27:36.733Z,101420.13
2022-11-14T14:30:22.173Z,101416.41
2022-11-14T14:33:08.023Z,101413.57
2022-11-14T14:35:53.870Z,101406.64
2022-11-14T14:38:40.605Z,101408.09
2022-11-14T14:41:31.217Z,101402.34
2022-11-14T14:44:31.472Z,101398.90
2022-11-14T14:47:39.006Z,101397.74
2022-11-14T14:50:28.306Z,101393.73
2022-11-14T14:53:25.035Z,101391.36
2022-11-14T14:56:24.297Z,101391.79
2022-11-14T14:59:22.502Z,101394.37
2022-11-14T15:02:17.940Z,101393.02
2022-11-14T15:05:04.569Z,101390.23
2022-11-14T15:07:52.887Z,101392.08
2022-11-14T15:10:38.889Z,101389.84
2022-11-14T15:13:25.868Z,101386.54
2022-11-14T15:16:11.655Z,101386.89
2022-11-14T15:18:57.975Z,101384.40
2022-11-14T15:21:43.440Z,101382.45
2022-11-14T15:24:29.900Z,101381.80
2022-11-14T15:27:18.248Z,101378.25
2022-11-14T15:30:07.496Z,101378.79
2022-11-14T15:32:55.946Z,101377.77
2022-11-14T15:35:41.304Z,101376.98
2022-11-14T15:38:43.604Z,101381.54
2022-11-14T15:41:33.129Z,101372.98
2022-11-14T15:44:32.999Z,101368.48
2022-11-14T15:47:26.577Z,101371.00
2022-11-14T15:50:12.132Z,101363.23
2022-11-14T15:53:03.736Z,101370.09
2022-11-14T15:55:49.996Z,101364.80
2022-11-14T15:58:36.382Z,101362.38
2022-11-14T16:01:25.810Z,101364.45
2022-11-14T16:04:15.860Z,101356.39
2022-11-14T16:07:04.334Z,101354.41
2022-11-14T16:09:49.922Z,101354.59
2022-11-14T16:12:35.999Z,101352.39
2022-11-14T16:15:21.630Z,101354.11
2022-11-14T16:18:07.027Z,101352.20
2022-11-14T16:20:58.219Z,101356.84
2022-11-14T16:23:43.484Z,101351.79
2022-11-14T16:26:29.760Z,101353.17
2022-11-14T16:29:15.523Z,101344.44
2022-11-14T16:32:01.217Z,101345.52
2022-11-14T16:34:46.192Z,101349.25
2022-11-14T16:37:32.619Z,101349.58
2022-11-14T16:40:24.949Z,101350.68
2022-11-14T16:43:13.355Z,101347.92
2022-11-14T16:46:02.986Z,101348.33
2022-11-14T16:48:48.669Z,101348.16
2022-11-14T16:51:48.332Z,101347.11
2022-11-14T16:54:35.284Z,101348.77
2022-11-14T16:57:20.827Z,101345.55
2022-11-14T17:00:08.806Z,101349.27
2022-11-14T17:02:54.439Z,101352.62
2022-11-14T17:05:49.099Z,101357.06
2022-11-14T17:08:34.691Z,101359.08
2022-11-14T17:11:19.860Z,101358.14
2022-11-14T17:14:05.526Z,101353.95
2022-11-14T17:16:50.930Z,101357.86
2022-11-14T17:19:45.117Z,101352.63
2022-11-14T17:22:30.538Z,101347.81
2022-11-14T17:25:16.561Z,101347.99
2022-11-14T17:28:03.142Z,101347.19
2022-11-14T17:30:48.814Z,101347.08
2022-11-14T17:33:34.658Z,101349.76
2022-11-14T17:36:21.795Z,101348.80
2022-11-14T17:39:06.944Z,101344.67
2022-11-14T17:41:52.091Z,101341.29
2022-11-14T17:44:37.128Z,101340.29
2022-11-14T17:47:22.440Z,101336.30
2022-11-14T17:50:08.939Z,101331.61
2022-11-14T17:52:54.235Z,101327.83
2022-11-14T17:55:39.403Z,101325.31
2022-11-14T17:58:30.822Z,101322.70
2022-11-14T18:01:20.636Z,101321.25
2022-11-14T18:04:06.954Z,101315.30
2022-11-14T18:06:54.587Z,101316.28
2022-11-14T18:09:41.268Z,101318.83
2022-11-14T18:12:27.659Z,101320.45
2022-11-14T18:15:14.830Z,101321.44
2022-11-14T18:18:01.175Z,101322.77
2022-11-14T18:20:47.182Z,101320.20
2022-11-14T18:23:32.760Z,101320.95
2022-11-14T18:26:21.168Z,101321.06
2022-11-14T18:29:07.410Z,101312.58
2022-11-14T18:31:53.180Z,101314.88
2022-11-14T18:34:40.895Z,101310.36
2022-11-14T18:37:29.965Z,101309.95
2022-11-14T18:40:16.933Z,101306.47
2022-11-14T18:43:03.389Z,101309.24
2022-11-14T18:45:52.875Z,101310.28
2022-11-14T18:48:40.131Z,101304.90
2022-11-14T18:51:28.641Z,101306.66
2022-11-14T18:54:16.068Z,101304.60
2022-11-14T18:57:02.868Z,101299.05
2022-11-14T18:59:51.622Z,101302.27
2022-11-14T19:02:37.234Z,101305.16
2022-11-14T19:05:23.334Z,101298.18
2022-11-14T19:08:09.155Z,101291.23
2022-11-14T19:11:03.994Z,101290.98
2022-11-14T19:13:51.503Z,101294.50
2022-11-14T19:16:38.859Z,101288.16
2022-11-14T19:19:24.884Z,101282.63
2022-11-14T19:22:10.303Z,101282.41
2022-11-14T19:24:57.815Z,101275.27
2022-11-14T19:30:44.897Z,101273.30
2022-11-14T19:33:32.637Z,101275.61
2022-11-14T19:36:45.323Z,101282.08
2022-11-14T19:39:30.360Z,101282.90
2022-11-14T19:42:17.250Z,101285.34
2022-11-14T19:45:04.231Z,101284.41
2022-11-14T19:47:51.448Z,101283.34
2022-11-14T19:50:39.210Z,101278.13
2022-11-14T19:53:26.679Z,101275.70
2022-11-14T19:56:18.341Z,101273.66
2022-11-14T19:59:11.005Z,101271.95
2022-11-14T20:02:00.493Z,101269.05
2022-11-14T20:04:48.018Z,101267.33
2022-11-14T20:07:37.845Z,101267.21
2022-11-14T20:10:24.962Z,101264.71
2022-11-14T20:13:11.925Z,101261.58
2022-11-14T20:16:00.553Z,101261.31
2022-11-14T20:18:58.637Z,101261.92
2022-11-14T20:21:46.575Z,101258.02
2022-11-14T20:24:34.322Z,101258.05
2022-11-14T20:27:21.774Z,101257.16
2022-11-14T20:30:09.096Z,101255.80
2022-11-14T20:32:56.548Z,101257.09
2022-11-14T20:35:45.047Z,101257.91
2022-11-14T20:38:33.255Z,101254.39
2022-11-14T20:41:21.174Z,101251.64
2022-11-14T20:44:08.966Z,101246.30
2022-11-14T20:46:57.359Z,101245.63
2022-11-14T20:49:47.178Z,101241.87
2022-11-14T20:52:35.398Z,101242.08
2022-11-14T20:55:21.702Z,101241.02
2022-11-14T20:58:09.166Z,101238.34
2022-11-14T21:00:56.801Z,101233.14
2022-11-14T21:03:44.044Z,101233.71
2022-11-14T21:06:30.610Z,101241.57
2022-11-14T21:09:19.461Z,101239.92
2022-11-14T21:12:06.961Z,101236.63
2022-11-14T21:14:53.893Z,101234.36
2022-11-14T21:17:40.756Z,101229.95
2022-11-14T21:20:27.523Z,101227.65
2022-11-14T21:23:14.550Z,101224.65
2022-11-14T21:26:11.188Z,101228.98
2022-11-14T21:29:02.227Z,101235.44
2022-11-14T21:31:49.438Z,101228.69
2022-11-14T21:34:36.372Z,101228.67
2022-11-14T21:37:22.967Z,101225.48
2022-11-14T21:40:09.984Z,101226.68
2022-11-14T21:42:56.565Z,101223.17
2022-11-14T21:45:43.198Z,101222.27
2022-11-14T21:48:31.443Z,101217.02
2022-11-14T21:51:24.120Z,101214.15
2022-11-14T21:54:11.291Z,101210.42
2022-11-14T21:57:03.142Z,101213.14
2022-11-14T21:59:52.475Z,101213.08
2022-11-14T22:02:57.823Z,101211.61
2022-11-14T22:05:44.399Z,101209.92
2022-11-14T22:08:31.189Z,101208.67
2022-11-14T22:11:18.086Z,101209.49
2022-11-14T22:14:05.084Z,101212.27
2022-11-14T22:16:51.941Z,101208.66
2022-11-14T22:19:38.437Z,101210.03
2022-11-14T22:22:25.286Z,101210.13
2022-11-14T22:25:11.944Z,101204.36
2022-11-14T22:27:58.152Z,101203.44
2022-11-14T22:30:45.015Z,101204.13
2022-11-14T22:33:34.219Z,101200.16
2022-11-14T22:36:25.623Z,101197.42
2022-11-14T22:39:12.023Z,101195.02
2022-11-14T22:41:58.789Z,101197.03
2022-11-14T22:44:45.345Z,101201.13
2022-11-14T22:47:31.984Z,101201.89
2022-11-14T22:50:19.185Z,101198.92
2022-11-14T22:53:05.862Z,101199.05
2022-11-14T22:55:52.721Z,101196.71
2022-11-14T22:58:41.785Z,101196.04
2022-11-14T23:01:31.536Z,101196.21
2022-11-14T23:04:18.260Z,101192.52
2022-11-14T23:07:04.885Z,101190.85
2022-11-14T23:09:51.567Z,101181.38
2022-11-14T23:12:38.287Z,101184.84
2022-11-14T23:15:25.507Z,101176.91
2022-11-14T23:18:12.852Z,101177.52
2022-11-14T23:21:07.017Z,101176.13
2022-11-14T23:23:55.263Z,101169.13
2022-11-14T23:26:41.697Z,101168.60
2022-11-14T23:29:28.581Z,101162.42
2022-11-14T23:32:15.458Z,101153.13
2022-11-14T23:35:01.729Z,101144.51
2022-11-14T23:37:48.437Z,101150.30
2022-11-14T23:40:34.961Z,101143.32
2022-11-14T23:43:21.624Z,101139.36
2022-11-14T23:46:08.391Z,101140.88
2022-11-14T23:48:55.240Z,101139.59
2022-11-14T23:51:41.658Z,101137.05
2022-11-14T23:54:28.808Z,101135.41
2022-11-14T23:57:15.687Z,101139.92
